sensor_id;sensor_type;location;lat;lon;timestamp;P1;durP1;ratioP1;P2;durP2;ratioP2
41556;SDS011;27720;51.992;5.890;2023-02-07T00:00:36;6.18;;;2.75;;
41556;SDS011;27720;51.992;5.890;2023-02-07T00:03:02;8.27;;;3.08;;
41556;SDS011;27720;51.992;5.890;2023-02-07T00:05:28;11.13;;;3.38;;
41556;SDS011;27720;51.992;5.890;2023-02-07T00:07:53;8.98;;;3.88;;
41556;SDS011;27720;51.992;5.890;2023-02-07T00:10:19;7.13;;;3.22;;
41556;SDS011;27720;51.992;5.890;2023-02-07T00:12:45;8.90;;;3.40;;
41556;SDS011;27720;51.992;5.890;2023-02-07T00:15:12;7.07;;;2.95;;
41556;SDS011;27720;51.992;5.890;2023-02-07T00:17:38;10.90;;;3.42;;
41556;SDS011;27720;51.992;5.890;2023-02-07T00:20:04;7.32;;;3.33;;
41556;SDS011;27720;51.992;5.890;2023-02-07T00:22:30;7.68;;;3.63;;
41556;SDS011;27720;51.992;5.890;2023-02-07T00:24:56;6.15;;;2.60;;
41556;SDS011;27720;51.992;5.890;2023-02-07T00:27:22;11.73;;;3.85;;
41556;SDS011;27720;51.992;5.890;2023-02-07T00:29:51;7.57;;;3.78;;
41556;SDS011;27720;51.992;5.890;2023-02-07T00:32:17;12.93;;;4.63;;
41556;SDS011;27720;51.992;5.890;2023-02-07T00:34:44;6.63;;;2.97;;
41556;SDS011;27720;51.992;5.890;2023-02-07T00:37:14;11.02;;;3.90;;
41556;SDS011;27720;51.992;5.890;2023-02-07T00:39:41;11.00;;;4.10;;
41556;SDS011;27720;51.992;5.890;2023-02-07T00:42:06;12.15;;;5.18;;
41556;SDS011;27720;51.992;5.890;2023-02-07T00:44:32;8.07;;;3.58;;
41556;SDS011;27720;51.992;5.890;2023-02-07T00:46:58;14.15;;;4.93;;
41556;SDS011;27720;51.992;5.890;2023-02-07T00:49:25;10.95;;;3.83;;
41556;SDS011;27720;51.992;5.890;2023-02-07T00:51:51;16.90;;;4.53;;
41556;SDS011;27720;51.992;5.890;2023-02-07T00:54:18;15.23;;;4.18;;
41556;SDS011;27720;51.992;5.890;2023-02-07T00:56:44;9.75;;;4.60;;
41556;SDS011;27720;51.992;5.890;2023-02-07T00:59:10;10.10;;;4.07;;
41556;SDS011;27720;51.992;5.890;2023-02-07T01:01:35;9.48;;;4.63;;
41556;SDS011;27720;51.992;5.890;2023-02-07T01:04:01;9.23;;;4.57;;
41556;SDS011;27720;51.992;5.890;2023-02-07T01:06:27;7.03;;;3.85;;
41556;SDS011;27720;51.992;5.890;2023-02-07T01:08:55;14.65;;;4.18;;
41556;SDS011;27720;51.992;5.890;2023-02-07T01:11:21;10.32;;;4.00;;
41556;SDS011;27720;51.992;5.890;2023-02-07T01:13:47;7.25;;;3.70;;
41556;SDS011;27720;51.992;5.890;2023-02-07T01:16:46;10.13;;;3.67;;
41556;SDS011;27720;51.992;5.890;2023-02-07T01:19:07;18.20;;;5.10;;
41556;SDS011;27720;51.992;5.890;2023-02-07T01:21:34;9.77;;;4.00;;
41556;SDS011;27720;51.992;5.890;2023-02-07T01:24:01;7.97;;;3.53;;
41556;SDS011;27720;51.992;5.890;2023-02-07T01:26:27;10.77;;;3.95;;
41556;SDS011;27720;51.992;5.890;2023-02-07T01:28:53;9.57;;;3.47;;
41556;SDS011;27720;51.992;5.890;2023-02-07T01:31:20;8.18;;;2.35;;
41556;SDS011;27720;51.992;5.890;2023-02-07T01:33:47;9.23;;;4.43;;
41556;SDS011;27720;51.992;5.890;2023-02-07T01:36:17;10.10;;;4.28;;
41556;SDS011;27720;51.992;5.890;2023-02-07T01:38:43;9.65;;;4.00;;
41556;SDS011;27720;51.992;5.890;2023-02-07T01:41:09;10.00;;;4.13;;
41556;SDS011;27720;51.992;5.890;2023-02-07T01:46:41;10.55;;;4.13;;
41556;SDS011;27720;51.992;5.890;2023-02-07T01:49:08;13.32;;;4.03;;
41556;SDS011;27720;51.992;5.890;2023-02-07T01:51:36;16.35;;;4.72;;
41556;SDS011;27720;51.992;5.890;2023-02-07T01:54:09;9.57;;;3.70;;
41556;SDS011;27720;51.992;5.890;2023-02-07T01:56:37;9.80;;;3.58;;
41556;SDS011;27720;51.992;5.890;2023-02-07T01:59:07;10.02;;;3.70;;
41556;SDS011;27720;51.992;5.890;2023-02-07T02:01:34;10.88;;;4.90;;
41556;SDS011;27720;51.992;5.890;2023-02-07T02:04:00;8.77;;;3.80;;
41556;SDS011;27720;51.992;5.890;2023-02-07T02:06:27;17.85;;;4.47;;
41556;SDS011;27720;51.992;5.890;2023-02-07T02:08:59;15.55;;;6.78;;
41556;SDS011;27720;51.992;5.890;2023-02-07T02:14:10;12.30;;;5.07;;
41556;SDS011;27720;51.992;5.890;2023-02-07T02:17:08;9.05;;;3.90;;
41556;SDS011;27720;51.992;5.890;2023-02-07T02:28:04;12.90;;;4.80;;
41556;SDS011;27720;51.992;5.890;2023-02-07T02:30:49;9.23;;;4.40;;
41556;SDS011;27720;51.992;5.890;2023-02-07T02:41:36;15.75;;;6.38;;
41556;SDS011;27720;51.992;5.890;2023-02-07T02:44:19;9.60;;;5.25;;
41556;SDS011;27720;51.992;5.890;2023-02-07T02:46:52;8.43;;;4.15;;
41556;SDS011;27720;51.992;5.890;2023-02-07T02:49:19;11.00;;;4.88;;
41556;SDS011;27720;51.992;5.890;2023-02-07T02:51:50;11.77;;;4.90;;
41556;SDS011;27720;51.992;5.890;2023-02-07T03:02:45;10.73;;;4.22;;
41556;SDS011;27720;51.992;5.890;2023-02-07T03:07:57;10.90;;;4.57;;
41556;SDS011;27720;51.992;5.890;2023-02-07T03:13:14;18.17;;;6.35;;
41556;SDS011;27720;51.992;5.890;2023-02-07T03:16:03;11.68;;;4.95;;
41556;SDS011;27720;51.992;5.890;2023-02-07T03:23:59;11.77;;;4.40;;
41556;SDS011;27720;51.992;5.890;2023-02-07T03:26:28;10.35;;;4.95;;
41556;SDS011;27720;51.992;5.890;2023-02-07T03:28:56;13.70;;;5.25;;
41556;SDS011;27720;51.992;5.890;2023-02-07T03:31:24;9.77;;;5.53;;
41556;SDS011;27720;51.992;5.890;2023-02-07T03:33:55;12.17;;;4.73;;
41556;SDS011;27720;51.992;5.890;2023-02-07T03:36:35;10.35;;;4.55;;
41556;SDS011;27720;51.992;5.890;2023-02-07T03:39:15;13.98;;;5.28;;
41556;SDS011;27720;51.992;5.890;2023-02-07T03:41:48;9.30;;;4.75;;
41556;SDS011;27720;51.992;5.890;2023-02-07T03:44:21;10.60;;;4.40;;
41556;SDS011;27720;51.992;5.890;2023-02-07T03:46:49;12.73;;;4.88;;
41556;SDS011;27720;51.992;5.890;2023-02-07T03:49:15;13.93;;;5.75;;
41556;SDS011;27720;51.992;5.890;2023-02-07T03:51:44;14.00;;;4.80;;
41556;SDS011;27720;51.992;5.890;2023-02-07T03:54:11;14.05;;;5.40;;
41556;SDS011;27720;51.992;5.890;2023-02-07T03:56:37;15.13;;;5.45;;
41556;SDS011;27720;51.992;5.890;2023-02-07T03:59:03;12.05;;;5.32;;
41556;SDS011;27720;51.992;5.890;2023-02-07T04:01:29;12.45;;;5.15;;
41556;SDS011;27720;51.992;5.890;2023-02-07T04:03:54;11.23;;;5.50;;
41556;SDS011;27720;51.992;5.890;2023-02-07T04:06:20;14.55;;;5.25;;
41556;SDS011;27720;51.992;5.890;2023-02-07T04:08:47;9.32;;;4.25;;
41556;SDS011;27720;51.992;5.890;2023-02-07T04:11:12;9.85;;;4.50;;
41556;SDS011;27720;51.992;5.890;2023-02-07T04:13:38;12.23;;;5.90;;
41556;SDS011;27720;51.992;5.890;2023-02-07T04:16:05;15.70;;;5.55;;
41556;SDS011;27720;51.992;5.890;2023-02-07T04:18:31;15.88;;;5.78;;
41556;SDS011;27720;51.992;5.890;2023-02-07T04:21:04;10.40;;;5.05;;
41556;SDS011;27720;51.992;5.890;2023-02-07T04:23:31;16.20;;;5.72;;
41556;SDS011;27720;51.992;5.890;2023-02-07T04:25:57;13.13;;;5.95;;
41556;SDS011;27720;51.992;5.890;2023-02-07T04:28:23;11.38;;;5.32;;
41556;SDS011;27720;51.992;5.890;2023-02-07T04:30:49;15.80;;;6.32;;
41556;SDS011;27720;51.992;5.890;2023-02-07T04:33:15;12.88;;;5.13;;
41556;SDS011;27720;51.992;5.890;2023-02-07T04:35:41;12.40;;;5.25;;
41556;SDS011;27720;51.992;5.890;2023-02-07T04:38:07;13.65;;;5.78;;
41556;SDS011;27720;51.992;5.890;2023-02-07T04:40:33;12.98;;;6.60;;
41556;SDS011;27720;51.992;5.890;2023-02-07T04:42:58;7.95;;;4.35;;
41556;SDS011;27720;51.992;5.890;2023-02-07T04:45:24;11.57;;;5.13;;
41556;SDS011;27720;51.992;5.890;2023-02-07T04:47:50;16.17;;;6.28;;
41556;SDS011;27720;51.992;5.890;2023-02-07T04:50:16;14.98;;;6.68;;
41556;SDS011;27720;51.992;5.890;2023-02-07T04:52:41;10.88;;;4.70;;
41556;SDS011;27720;51.992;5.890;2023-02-07T04:55:08;15.02;;;6.82;;
41556;SDS011;27720;51.992;5.890;2023-02-07T04:57:34;13.35;;;6.13;;
41556;SDS011;27720;51.992;5.890;2023-02-07T05:00:00;8.88;;;4.60;;
41556;SDS011;27720;51.992;5.890;2023-02-07T05:02:27;13.55;;;5.88;;
41556;SDS011;27720;51.992;5.890;2023-02-07T05:04:53;8.63;;;4.65;;
41556;SDS011;27720;51.992;5.890;2023-02-07T05:07:19;11.40;;;5.15;;
41556;SDS011;27720;51.992;5.890;2023-02-07T05:09:44;12.90;;;5.40;;
41556;SDS011;27720;51.992;5.890;2023-02-07T05:12:10;11.20;;;4.85;;
41556;SDS011;27720;51.992;5.890;2023-02-07T05:14:37;12.27;;;5.20;;
41556;SDS011;27720;51.992;5.890;2023-02-07T05:17:02;11.40;;;5.05;;
41556;SDS011;27720;51.992;5.890;2023-02-07T05:19:28;10.80;;;5.70;;
41556;SDS011;27720;51.992;5.890;2023-02-07T05:21:54;13.20;;;4.97;;
41556;SDS011;27720;51.992;5.890;2023-02-07T05:24:20;8.23;;;4.53;;
41556;SDS011;27720;51.992;5.890;2023-02-07T05:26:45;11.80;;;5.53;;
41556;SDS011;27720;51.992;5.890;2023-02-07T05:29:11;11.82;;;4.85;;
41556;SDS011;27720;51.992;5.890;2023-02-07T05:31:37;10.80;;;5.30;;
41556;SDS011;27720;51.992;5.890;2023-02-07T05:34:22;10.00;;;4.30;;
41556;SDS011;27720;51.992;5.890;2023-02-07T05:36:48;14.45;;;5.43;;
41556;SDS011;27720;51.992;5.890;2023-02-07T05:39:14;11.35;;;5.28;;
41556;SDS011;27720;51.992;5.890;2023-02-07T05:41:39;9.65;;;4.65;;
41556;SDS011;27720;51.992;5.890;2023-02-07T05:44:05;12.43;;;5.70;;
41556;SDS011;27720;51.992;5.890;2023-02-07T05:46:31;10.10;;;4.88;;
41556;SDS011;27720;51.992;5.890;2023-02-07T05:48:57;9.70;;;5.25;;
41556;SDS011;27720;51.992;5.890;2023-02-07T05:51:22;14.73;;;5.80;;
41556;SDS011;27720;51.992;5.890;2023-02-07T05:53:48;10.13;;;4.72;;
41556;SDS011;27720;51.992;5.890;2023-02-07T05:56:14;13.07;;;5.68;;
41556;SDS011;27720;51.992;5.890;2023-02-07T05:58:40;16.27;;;5.07;;
41556;SDS011;27720;51.992;5.890;2023-02-07T06:01:05;9.38;;;4.93;;
41556;SDS011;27720;51.992;5.890;2023-02-07T06:03:31;14.43;;;5.40;;
41556;SDS011;27720;51.992;5.890;2023-02-07T06:05:57;12.52;;;5.30;;
41556;SDS011;27720;51.992;5.890;2023-02-07T06:08:22;16.10;;;5.60;;
41556;SDS011;27720;51.992;5.890;2023-02-07T06:10:48;11.38;;;5.20;;
41556;SDS011;27720;51.992;5.890;2023-02-07T06:13:14;14.55;;;5.28;;
41556;SDS011;27720;51.992;5.890;2023-02-07T06:15:40;15.07;;;5.60;;
41556;SDS011;27720;51.992;5.890;2023-02-07T06:18:05;12.93;;;5.35;;
41556;SDS011;27720;51.992;5.890;2023-02-07T06:20:31;9.80;;;5.05;;
41556;SDS011;27720;51.992;5.890;2023-02-07T06:22:57;13.20;;;5.78;;
41556;SDS011;27720;51.992;5.890;2023-02-07T06:25:23;11.00;;;5.35;;
41556;SDS011;27720;51.992;5.890;2023-02-07T06:27:48;10.75;;;5.53;;
41556;SDS011;27720;51.992;5.890;2023-02-07T06:30:15;11.07;;;4.13;;
41556;SDS011;27720;51.992;5.890;2023-02-07T06:32:41;11.05;;;5.22;;
41556;SDS011;27720;51.992;5.890;2023-02-07T06:35:07;12.45;;;5.75;;
41556;SDS011;27720;51.992;5.890;2023-02-07T06:37:33;10.32;;;5.10;;
41556;SDS011;27720;51.992;5.890;2023-02-07T06:39:59;10.95;;;4.88;;
41556;SDS011;27720;51.992;5.890;2023-02-07T06:42:28;14.02;;;5.00;;
41556;SDS011;27720;51.992;5.890;2023-02-07T06:44:53;12.40;;;5.75;;
41556;SDS011;27720;51.992;5.890;2023-02-07T06:47:19;17.45;;;6.72;;
41556;SDS011;27720;51.992;5.890;2023-02-07T06:49:45;11.32;;;5.45;;
41556;SDS011;27720;51.992;5.890;2023-02-07T06:52:11;13.35;;;5.90;;
41556;SDS011;27720;51.992;5.890;2023-02-07T06:54:37;15.40;;;6.10;;
41556;SDS011;27720;51.992;5.890;2023-02-07T06:57:03;11.63;;;5.45;;
41556;SDS011;27720;51.992;5.890;2023-02-07T06:59:29;11.80;;;6.00;;
41556;SDS011;27720;51.992;5.890;2023-02-07T07:01:55;15.88;;;5.20;;
41556;SDS011;27720;51.992;5.890;2023-02-07T07:04:21;10.93;;;4.78;;
41556;SDS011;27720;51.992;5.890;2023-02-07T07:06:47;12.50;;;5.22;;
41556;SDS011;27720;51.992;5.890;2023-02-07T07:09:13;13.38;;;5.70;;
41556;SDS011;27720;51.992;5.890;2023-02-07T07:11:38;9.15;;;5.18;;
41556;SDS011;27720;51.992;5.890;2023-02-07T07:14:07;14.32;;;5.68;;
41556;SDS011;27720;51.992;5.890;2023-02-07T07:16:34;12.10;;;5.85;;
41556;SDS011;27720;51.992;5.890;2023-02-07T07:19:00;10.75;;;5.55;;
41556;SDS011;27720;51.992;5.890;2023-02-07T07:21:26;12.80;;;5.07;;
41556;SDS011;27720;51.992;5.890;2023-02-07T07:23:52;10.07;;;4.28;;
41556;SDS011;27720;51.992;5.890;2023-02-07T07:26:19;11.20;;;5.72;;
41556;SDS011;27720;51.992;5.890;2023-02-07T07:28:45;15.77;;;5.45;;
41556;SDS011;27720;51.992;5.890;2023-02-07T07:31:11;11.73;;;5.53;;
41556;SDS011;27720;51.992;5.890;2023-02-07T07:33:37;12.85;;;5.90;;
41556;SDS011;27720;51.992;5.890;2023-02-07T07:36:03;13.18;;;5.07;;
41556;SDS011;27720;51.992;5.890;2023-02-07T07:38:30;11.38;;;5.88;;
41556;SDS011;27720;51.992;5.890;2023-02-07T07:40:57;13.90;;;6.30;;
41556;SDS011;27720;51.992;5.890;2023-02-07T07:43:26;11.38;;;5.75;;
41556;SDS011;27720;51.992;5.890;2023-02-07T07:45:53;11.25;;;4.65;;
41556;SDS011;27720;51.992;5.890;2023-02-07T07:48:21;12.93;;;5.50;;
41556;SDS011;27720;51.992;5.890;2023-02-07T07:50:48;10.15;;;4.68;;
41556;SDS011;27720;51.992;5.890;2023-02-07T07:53:14;11.70;;;5.65;;
41556;SDS011;27720;51.992;5.890;2023-02-07T07:55:40;11.80;;;5.72;;
41556;SDS011;27720;51.992;5.890;2023-02-07T07:58:07;9.23;;;4.75;;
41556;SDS011;27720;51.992;5.890;2023-02-07T08:00:32;13.70;;;7.03;;
41556;SDS011;27720;51.992;5.890;2023-02-07T08:02:58;9.20;;;5.00;;
41556;SDS011;27720;51.992;5.890;2023-02-07T08:05:24;13.40;;;5.13;;
41556;SDS011;27720;51.992;5.890;2023-02-07T08:07:49;12.68;;;5.82;;
41556;SDS011;27720;51.992;5.890;2023-02-07T08:10:16;16.15;;;6.85;;
41556;SDS011;27720;51.992;5.890;2023-02-07T08:12:41;14.63;;;6.13;;
41556;SDS011;27720;51.992;5.890;2023-02-07T08:15:07;14.00;;;5.93;;
41556;SDS011;27720;51.992;5.890;2023-02-07T08:17:34;15.10;;;7.15;;
41556;SDS011;27720;51.992;5.890;2023-02-07T08:20:01;13.98;;;5.10;;
41556;SDS011;27720;51.992;5.890;2023-02-07T08:22:27;15.52;;;6.28;;
41556;SDS011;27720;51.992;5.890;2023-02-07T08:24:53;12.13;;;5.53;;
41556;SDS011;27720;51.992;5.890;2023-02-07T08:27:18;11.25;;;5.05;;
41556;SDS011;27720;51.992;5.890;2023-02-07T08:29:44;12.13;;;5.10;;
41556;SDS011;27720;51.992;5.890;2023-02-07T08:32:10;16.38;;;5.22;;
41556;SDS011;27720;51.992;5.890;2023-02-07T08:34:36;19.55;;;7.35;;
41556;SDS011;27720;51.992;5.890;2023-02-07T08:37:05;11.02;;;6.13;;
41556;SDS011;27720;51.992;5.890;2023-02-07T08:39:33;14.95;;;5.80;;
41556;SDS011;27720;51.992;5.890;2023-02-07T08:41:59;14.98;;;6.75;;
41556;SDS011;27720;51.992;5.890;2023-02-07T08:44:26;16.58;;;7.78;;
41556;SDS011;27720;51.992;5.890;2023-02-07T08:46:52;16.00;;;6.88;;
41556;SDS011;27720;51.992;5.890;2023-02-07T08:49:18;15.23;;;7.82;;
41556;SDS011;27720;51.992;5.890;2023-02-07T08:51:43;13.45;;;6.25;;
41556;SDS011;27720;51.992;5.890;2023-02-07T08:54:09;14.32;;;6.28;;
41556;SDS011;27720;51.992;5.890;2023-02-07T08:56:35;17.63;;;7.20;;
41556;SDS011;27720;51.992;5.890;2023-02-07T08:59:01;17.35;;;7.47;;
41556;SDS011;27720;51.992;5.890;2023-02-07T09:01:26;17.42;;;7.50;;
41556;SDS011;27720;51.992;5.890;2023-02-07T09:03:55;17.45;;;7.18;;
41556;SDS011;27720;51.992;5.890;2023-02-07T09:06:22;14.93;;;6.65;;
41556;SDS011;27720;51.992;5.890;2023-02-07T09:08:49;20.15;;;8.25;;
41556;SDS011;27720;51.992;5.890;2023-02-07T09:11:16;20.83;;;8.13;;
41556;SDS011;27720;51.992;5.890;2023-02-07T09:13:42;20.88;;;8.27;;
41556;SDS011;27720;51.992;5.890;2023-02-07T09:16:10;16.13;;;6.97;;
41556;SDS011;27720;51.992;5.890;2023-02-07T09:18:39;12.30;;;7.13;;
41556;SDS011;27720;51.992;5.890;2023-02-07T09:21:06;17.50;;;8.05;;
41556;SDS011;27720;51.992;5.890;2023-02-07T09:23:32;18.17;;;7.00;;
41556;SDS011;27720;51.992;5.890;2023-02-07T09:26:03;21.38;;;8.38;;
41556;SDS011;27720;51.992;5.890;2023-02-07T09:28:30;14.32;;;7.13;;
41556;SDS011;27720;51.992;5.890;2023-02-07T09:30:56;16.25;;;7.28;;
41556;SDS011;27720;51.992;5.890;2023-02-07T09:33:22;20.20;;;9.43;;
41556;SDS011;27720;51.992;5.890;2023-02-07T09:35:48;23.02;;;10.10;;
41556;SDS011;27720;51.992;5.890;2023-02-07T09:38:16;22.52;;;9.15;;
41556;SDS011;27720;51.992;5.890;2023-02-07T09:40:44;20.40;;;8.10;;
41556;SDS011;27720;51.992;5.890;2023-02-07T09:46:18;19.88;;;8.95;;
41556;SDS011;27720;51.992;5.890;2023-02-07T09:49:01;17.55;;;7.07;;
41556;SDS011;27720;51.992;5.890;2023-02-07T09:51:36;15.40;;;7.15;;
41556;SDS011;27720;51.992;5.890;2023-02-07T09:54:13;14.07;;;7.13;;
41556;SDS011;27720;51.992;5.890;2023-02-07T09:56:50;17.88;;;6.88;;
41556;SDS011;27720;51.992;5.890;2023-02-07T09:59:27;15.60;;;7.45;;
41556;SDS011;27720;51.992;5.890;2023-02-07T10:02:17;15.95;;;7.35;;
41556;SDS011;27720;51.992;5.890;2023-02-07T10:04:49;12.30;;;6.40;;
41556;SDS011;27720;51.992;5.890;2023-02-07T10:07:19;21.57;;;8.17;;
41556;SDS011;27720;51.992;5.890;2023-02-07T10:09:45;13.80;;;7.70;;
41556;SDS011;27720;51.992;5.890;2023-02-07T10:21:04;16.57;;;7.13;;
41556;SDS011;27720;51.992;5.890;2023-02-07T10:27:08;16.92;;;7.63;;
41556;SDS011;27720;51.992;5.890;2023-02-07T10:32:14;21.10;;;7.45;;
41556;SDS011;27720;51.992;5.890;2023-02-07T10:34:45;20.70;;;7.28;;
41556;SDS011;27720;51.992;5.890;2023-02-07T10:37:22;21.50;;;7.45;;
41556;SDS011;27720;51.992;5.890;2023-02-07T10:39:56;16.40;;;7.15;;
41556;SDS011;27720;51.992;5.890;2023-02-07T10:42:33;20.15;;;7.45;;
41556;SDS011;27720;51.992;5.890;2023-02-07T10:45:01;19.50;;;7.35;;
41556;SDS011;27720;51.992;5.890;2023-02-07T10:47:27;15.20;;;6.05;;
41556;SDS011;27720;51.992;5.890;2023-02-07T10:49:57;15.32;;;7.13;;
41556;SDS011;27720;51.992;5.890;2023-02-07T10:52:26;16.48;;;7.13;;
41556;SDS011;27720;51.992;5.890;2023-02-07T10:54:58;13.52;;;5.82;;
41556;SDS011;27720;51.992;5.890;2023-02-07T10:57:27;16.13;;;6.80;;
41556;SDS011;27720;51.992;5.890;2023-02-07T11:02:49;9.82;;;5.35;;
41556;SDS011;27720;51.992;5.890;2023-02-07T11:10:24;12.38;;;5.70;;
41556;SDS011;27720;51.992;5.890;2023-02-07T11:13:15;11.98;;;4.97;;
41556;SDS011;27720;51.992;5.890;2023-02-07T11:15:47;20.15;;;5.93;;
41556;SDS011;27720;51.992;5.890;2023-02-07T11:18:44;11.07;;;5.35;;
41556;SDS011;27720;51.992;5.890;2023-02-07T11:21:34;14.75;;;5.32;;
41556;SDS011;27720;51.992;5.890;2023-02-07T11:24:12;13.25;;;5.50;;
41556;SDS011;27720;51.992;5.890;2023-02-07T11:27:14;10.23;;;4.68;;
41556;SDS011;27720;51.992;5.890;2023-02-07T11:29:37;8.38;;;3.78;;
41556;SDS011;27720;51.992;5.890;2023-02-07T11:32:12;7.90;;;4.05;;
41556;SDS011;27720;51.992;5.890;2023-02-07T11:34:56;10.02;;;4.10;;
41556;SDS011;27720;51.992;5.890;2023-02-07T11:37:32;17.33;;;5.40;;
41556;SDS011;27720;51.992;5.890;2023-02-07T11:42:47;8.85;;;3.92;;
41556;SDS011;27720;51.992;5.890;2023-02-07T11:47:55;8.70;;;3.70;;
41556;SDS011;27720;51.992;5.890;2023-02-07T11:53:00;8.80;;;4.18;;
41556;SDS011;27720;51.992;5.890;2023-02-07T11:55:29;7.28;;;4.00;;
41556;SDS011;27720;51.992;5.890;2023-02-07T11:58:01;9.82;;;3.85;;
41556;SDS011;27720;51.992;5.890;2023-02-07T12:00:34;5.85;;;3.50;;
41556;SDS011;27720;51.992;5.890;2023-02-07T12:03:02;6.82;;;3.35;;
41556;SDS011;27720;51.992;5.890;2023-02-07T12:05:38;6.05;;;2.88;;
41556;SDS011;27720;51.992;5.890;2023-02-07T12:08:11;4.22;;;2.97;;
41556;SDS011;27720;51.992;5.890;2023-02-07T12:11:18;5.43;;;2.80;;
41556;SDS011;27720;51.992;5.890;2023-02-07T12:13:50;4.88;;;2.90;;
41556;SDS011;27720;51.992;5.890;2023-02-07T12:16:54;6.25;;;3.05;;
41556;SDS011;27720;51.992;5.890;2023-02-07T12:19:17;6.50;;;2.30;;
41556;SDS011;27720;51.992;5.890;2023-02-07T12:24:20;5.10;;;2.63;;
41556;SDS011;27720;51.992;5.890;2023-02-07T12:42:07;9.18;;;3.22;;
41556;SDS011;27720;51.992;5.890;2023-02-07T12:44:47;5.20;;;2.72;;
41556;SDS011;27720;51.992;5.890;2023-02-07T13:00:32;7.07;;;2.67;;
41556;SDS011;27720;51.992;5.890;2023-02-07T13:03:29;5.57;;;2.80;;
41556;SDS011;27720;51.992;5.890;2023-02-07T13:22:48;7.32;;;3.08;;
41556;SDS011;27720;51.992;5.890;2023-02-07T13:25:18;7.40;;;3.50;;
41556;SDS011;27720;51.992;5.890;2023-02-07T13:27:48;5.80;;;2.70;;
41556;SDS011;27720;51.992;5.890;2023-02-07T13:30:16;6.20;;;3.55;;
41556;SDS011;27720;51.992;5.890;2023-02-07T13:32:45;8.23;;;3.28;;
41556;SDS011;27720;51.992;5.890;2023-02-07T13:35:25;5.88;;;2.97;;
41556;SDS011;27720;51.992;5.890;2023-02-07T13:37:58;5.90;;;2.78;;
41556;SDS011;27720;51.992;5.890;2023-02-07T13:43:42;7.25;;;3.17;;
41556;SDS011;27720;51.992;5.890;2023-02-07T13:49:20;8.05;;;2.80;;
41556;SDS011;27720;51.992;5.890;2023-02-07T13:52:11;8.20;;;2.92;;
41556;SDS011;27720;51.992;5.890;2023-02-07T13:54:43;6.80;;;3.35;;
41556;SDS011;27720;51.992;5.890;2023-02-07T14:00:24;8.02;;;3.35;;
41556;SDS011;27720;51.992;5.890;2023-02-07T14:02:53;6.90;;;3.05;;
41556;SDS011;27720;51.992;5.890;2023-02-07T14:05:26;6.07;;;2.90;;
41556;SDS011;27720;51.992;5.890;2023-02-07T14:08:01;6.13;;;2.40;;
41556;SDS011;27720;51.992;5.890;2023-02-07T14:10:43;4.53;;;2.78;;
41556;SDS011;27720;51.992;5.890;2023-02-07T14:13:23;5.20;;;2.75;;
41556;SDS011;27720;51.992;5.890;2023-02-07T14:15:53;6.72;;;2.85;;
41556;SDS011;27720;51.992;5.890;2023-02-07T14:18:33;6.57;;;2.72;;
41556;SDS011;27720;51.992;5.890;2023-02-07T14:31:49;4.43;;;2.50;;
41556;SDS011;27720;51.992;5.890;2023-02-07T14:34:17;3.63;;;2.00;;
41556;SDS011;27720;51.992;5.890;2023-02-07T14:36:47;7.10;;;3.30;;
41556;SDS011;27720;51.992;5.890;2023-02-07T14:41:48;4.72;;;2.75;;
41556;SDS011;27720;51.992;5.890;2023-02-07T14:44:49;4.82;;;2.40;;
41556;SDS011;27720;51.992;5.890;2023-02-07T14:47:17;3.88;;;2.40;;
41556;SDS011;27720;51.992;5.890;2023-02-07T14:49:48;3.25;;;1.67;;
41556;SDS011;27720;51.992;5.890;2023-02-07T14:52:30;2.83;;;1.73;;
41556;SDS011;27720;51.992;5.890;2023-02-07T14:54:59;5.13;;;2.58;;
41556;SDS011;27720;51.992;5.890;2023-02-07T15:02:41;3.40;;;1.80;;
41556;SDS011;27720;51.992;5.890;2023-02-07T22:05:49;4.65;;;2.83;;
41556;SDS011;27720;51.992;5.890;2023-02-07T22:08:16;5.07;;;2.97;;
41556;SDS011;27720;51.992;5.890;2023-02-07T22:10:45;4.82;;;3.00;;
41556;SDS011;27720;51.992;5.890;2023-02-07T22:13:12;3.97;;;2.53;;
41556;SDS011;27720;51.992;5.890;2023-02-07T22:15:38;5.13;;;2.80;;
41556;SDS011;27720;51.992;5.890;2023-02-07T22:18:03;5.18;;;3.33;;
41556;SDS011;27720;51.992;5.890;2023-02-07T22:20:32;5.82;;;3.20;;
41556;SDS011;27720;51.992;5.890;2023-02-07T22:22:58;6.22;;;3.53;;
41556;SDS011;27720;51.992;5.890;2023-02-07T22:25:24;4.20;;;2.42;;
41556;SDS011;27720;51.992;5.890;2023-02-07T22:27:50;6.50;;;3.08;;
41556;SDS011;27720;51.992;5.890;2023-02-07T22:30:16;7.05;;;4.00;;
41556;SDS011;27720;51.992;5.890;2023-02-07T22:32:44;8.18;;;4.25;;
41556;SDS011;27720;51.992;5.890;2023-02-07T22:35:10;8.82;;;3.92;;
41556;SDS011;27720;51.992;5.890;2023-02-07T22:37:36;9.27;;;4.25;;
41556;SDS011;27720;51.992;5.890;2023-02-07T22:40:02;9.10;;;5.07;;
41556;SDS011;27720;51.992;5.890;2023-02-07T22:42:30;9.68;;;5.45;;
41556;SDS011;27720;51.992;5.890;2023-02-07T22:44:57;6.72;;;4.45;;
41556;SDS011;27720;51.992;5.890;2023-02-07T22:47:23;9.00;;;4.47;;
41556;SDS011;27720;51.992;5.890;2023-02-07T22:49:49;7.90;;;3.65;;
41556;SDS011;27720;51.992;5.890;2023-02-07T22:52:16;5.80;;;3.13;;
41556;SDS011;27720;51.992;5.890;2023-02-07T22:54:45;7.95;;;4.15;;
41556;SDS011;27720;51.992;5.890;2023-02-07T22:57:11;9.10;;;3.92;;
41556;SDS011;27720;51.992;5.890;2023-02-07T22:59:39;7.05;;;4.00;;
41556;SDS011;27720;51.992;5.890;2023-02-07T23:02:08;5.85;;;3.90;;
41556;SDS011;27720;51.992;5.890;2023-02-07T23:04:38;7.45;;;3.03;;
41556;SDS011;27720;51.992;5.890;2023-02-07T23:09:32;5.20;;;3.40;;
41556;SDS011;27720;51.992;5.890;2023-02-07T23:12:04;7.45;;;3.22;;
41556;SDS011;27720;51.992;5.890;2023-02-07T23:14:30;7.10;;;3.40;;
41556;SDS011;27720;51.992;5.890;2023-02-07T23:16:56;7.22;;;3.60;;
41556;SDS011;27720;51.992;5.890;2023-02-07T23:19:21;7.05;;;3.20;;
41556;SDS011;27720;51.992;5.890;2023-02-07T23:21:47;9.38;;;4.22;;
41556;SDS011;27720;51.992;5.890;2023-02-07T23:24:13;7.38;;;3.45;;
41556;SDS011;27720;51.992;5.890;2023-02-07T23:26:39;6.60;;;3.70;;
41556;SDS011;27720;51.992;5.890;2023-02-07T23:29:05;7.68;;;3.20;;
41556;SDS011;27720;51.992;5.890;2023-02-07T23:31:36;7.32;;;3.75;;
41556;SDS011;27720;51.992;5.890;2023-02-07T23:34:02;6.40;;;3.25;;
41556;SDS011;27720;51.992;5.890;2023-02-07T23:36:28;6.15;;;3.45;;
41556;SDS011;27720;51.992;5.890;2023-02-07T23:38:53;7.85;;;3.75;;
41556;SDS011;27720;51.992;5.890;2023-02-07T23:41:19;6.35;;;3.40;;
41556;SDS011;27720;51.992;5.890;2023-02-07T23:43:45;6.18;;;3.33;;
41556;SDS011;27720;51.992;5.890;2023-02-07T23:46:11;7.05;;;3.05;;
41556;SDS011;27720;51.992;5.890;2023-02-07T23:48:38;7.35;;;3.45;;
41556;SDS011;27720;51.992;5.890;2023-02-07T23:51:04;5.95;;;3.30;;
41556;SDS011;27720;51.992;5.890;2023-02-07T23:53:30;7.15;;;4.00;;
41556;SDS011;27720;51.992;5.890;2023-02-07T23:55:56;9.02;;;3.55;;
41556;SDS011;27720;51.992;5.890;2023-02-07T23:58:23;8.90;;;4.07;;
